createdAt,value
2023-05-04T00:02:14.471Z,99.90
2023-05-04T00:04:43.408Z,99.90
2023-05-04T00:07:12.710Z,99.90
2023-05-04T00:09:40.680Z,99.90
2023-05-04T00:12:08.858Z,99.90
2023-05-04T00:14:38.382Z,99.90
2023-05-04T00:17:07.852Z,99.90
2023-05-04T00:19:35.896Z,99.90
2023-05-04T00:22:04.011Z,99.90
2023-05-04T00:24:33.283Z,99.90
2023-05-04T00:27:02.322Z,99.90
2023-05-04T00:29:30.526Z,99.90
2023-05-04T00:31:58.751Z,99.90
2023-05-04T00:34:26.712Z,99.90
2023-05-04T00:36:54.668Z,99.90
2023-05-04T00:39:22.593Z,99.90
2023-05-04T00:41:52.079Z,99.90
2023-05-04T00:44:23.402Z,99.90
2023-05-04T00:46:52.410Z,99.90
2023-05-04T00:49:21.411Z,99.90
2023-05-04T00:51:50.752Z,99.90
2023-05-04T00:54:19.051Z,99.90
2023-05-04T00:56:47.085Z,99.90
2023-05-04T00:59:16.410Z,99.90
2023-05-04T01:01:44.424Z,99.90
2023-05-04T01:04:13.010Z,99.90
2023-05-04T01:06:48.793Z,99.90
2023-05-04T01:09:24.756Z,99.90
2023-05-04T01:11:59.411Z,99.90
2023-05-04T01:14:31.138Z,99.90
2023-05-04T01:17:00.893Z,99.90
2023-05-04T01:19:29.284Z,99.90
2023-05-04T01:21:58.617Z,99.90
2023-05-04T01:24:27.717Z,99.90
2023-05-04T01:26:58.816Z,99.90
2023-05-04T01:29:35.676Z,99.90
2023-05-04T01:32:04.354Z,99.90
2023-05-04T01:34:32.358Z,99.90
2023-05-04T01:37:03.433Z,99.90
2023-05-04T01:39:31.338Z,99.90
2023-05-04T01:41:59.846Z,99.90
2023-05-04T01:44:27.755Z,99.90
2023-05-04T01:46:55.713Z,99.90
2023-05-04T01:49:23.650Z,99.90
2023-05-04T01:51:51.488Z,99.90
2023-05-04T01:54:20.795Z,99.90
2023-05-04T01:56:48.793Z,99.90
2023-05-04T01:59:16.978Z,99.90
2023-05-04T02:01:44.960Z,99.90
2023-05-04T02:04:13.028Z,99.90
2023-05-04T02:06:41.288Z,99.90
2023-05-04T02:09:09.260Z,99.90
2023-05-04T02:11:38.578Z,99.90
2023-05-04T02:14:06.489Z,99.90
2023-05-04T02:16:34.413Z,99.90
2023-05-04T02:19:02.429Z,99.90
2023-05-04T02:21:30.573Z,99.90
2023-05-04T02:23:59.139Z,99.90
2023-05-04T02:26:27.055Z,99.90
2023-05-04T02:28:56.548Z,99.90
2023-05-04T02:31:24.946Z,99.90
2023-05-04T02:33:54.420Z,99.90
2023-05-04T02:36:22.461Z,99.90
2023-05-04T02:38:50.852Z,99.90
2023-05-04T02:41:18.722Z,99.90
2023-05-04T02:43:46.684Z,99.90
2023-05-04T02:46:16.036Z,99.90
2023-05-04T02:48:43.941Z,99.90
2023-05-04T02:51:11.861Z,99.90
2023-05-04T02:53:39.719Z,99.90
2023-05-04T02:56:08.386Z,99.90
2023-05-04T02:58:36.269Z,99.90
2023-05-04T03:01:04.421Z,99.90
2023-05-04T03:03:33.727Z,99.90
2023-05-04T03:06:01.622Z,99.90
2023-05-04T03:08:30.173Z,99.90
2023-05-04T03:10:58.130Z,99.90
2023-05-04T03:13:26.050Z,99.90
2023-05-04T03:15:53.962Z,99.90
2023-05-04T03:18:22.017Z,99.90
2023-05-04T03:20:52.633Z,99.90
2023-05-04T03:23:22.483Z,99.90
2023-05-04T03:25:50.604Z,99.90
2023-05-04T03:28:18.672Z,99.90
2023-05-04T03:30:46.582Z,99.90
2023-05-04T03:33:15.436Z,99.90
2023-05-04T03:35:44.131Z,99.90
2023-05-04T03:38:13.625Z,99.90
2023-05-04T03:40:41.821Z,99.90
2023-05-04T03:43:09.752Z,99.90
2023-05-04T03:45:37.647Z,99.90
2023-05-04T03:48:05.710Z,99.90
2023-05-04T03:50:33.675Z,99.90
2023-05-04T03:53:01.605Z,99.90
2023-05-04T03:55:31.600Z,99.90
2023-05-04T03:57:59.665Z,99.90
2023-05-04T04:00:28.448Z,99.90
2023-05-04T04:03:05.561Z,99.90
2023-05-04T04:05:34.228Z,99.90
2023-05-04T04:08:02.167Z,99.90
2023-05-04T04:10:31.984Z,99.90
2023-05-04T04:12:59.966Z,99.90
2023-05-04T04:15:27.904Z,99.90
2023-05-04T04:17:55.793Z,99.90
2023-05-04T04:20:23.697Z,99.90
2023-05-04T04:22:51.975Z,99.90
2023-05-04T04:25:20.189Z,99.90
2023-05-04T04:27:49.526Z,99.90
2023-05-04T04:30:17.575Z,99.90
2023-05-04T04:32:45.641Z,99.90
2023-05-04T04:35:14.112Z,99.90
2023-05-04T04:37:42.035Z,99.90
2023-05-04T04:40:11.127Z,99.90
2023-05-04T04:42:39.021Z,99.90
2023-05-04T04:45:09.604Z,99.90
2023-05-04T04:47:37.688Z,99.90
2023-05-04T04:50:06.821Z,99.90
2023-05-04T04:52:35.439Z,99.90
2023-05-04T04:55:04.266Z,99.90
2023-05-04T04:57:32.146Z,99.90
2023-05-04T05:00:00.857Z,99.90
2023-05-04T05:02:30.166Z,99.90
2023-05-04T05:04:58.538Z,99.90
2023-05-04T05:07:27.022Z,99.90
2023-05-04T05:09:54.923Z,99.90
2023-05-04T05:12:22.871Z,99.90
2023-05-04T05:14:50.895Z,99.90
2023-05-04T05:17:20.127Z,99.90
2023-05-04T05:19:50.017Z,99.90
2023-05-04T05:22:17.920Z,99.90
2023-05-04T05:24:45.960Z,99.90
2023-05-04T05:27:13.807Z,99.90
2023-05-04T05:29:41.880Z,99.90
2023-05-04T05:32:09.753Z,99.90
2023-05-04T05:34:38.913Z,99.90
2023-05-04T05:37:08.569Z,99.90
2023-05-04T05:39:36.888Z,99.90
2023-05-04T05:42:05.932Z,99.90
2023-05-04T05:44:37.319Z,99.90
2023-05-04T05:47:05.754Z,99.90
2023-05-04T05:49:33.725Z,99.90
2023-05-04T05:52:01.941Z,99.90
2023-05-04T05:54:32.966Z,99.90
2023-05-04T05:57:01.003Z,99.90
2023-05-04T05:59:28.988Z,99.90
2023-05-04T06:01:56.792Z,99.90
2023-05-04T06:04:24.681Z,99.90
2023-05-04T06:06:52.652Z,99.90
2023-05-04T06:09:21.051Z,99.90
2023-05-04T06:11:50.319Z,99.90
2023-05-04T06:14:18.240Z,99.90
2023-05-04T06:16:46.199Z,99.90
2023-05-04T06:19:14.592Z,99.90
2023-05-04T06:21:42.552Z,99.90
2023-05-04T06:24:10.800Z,99.90
2023-05-04T06:26:38.654Z,99.90
2023-05-04T06:29:07.943Z,99.90
2023-05-04T06:31:36.009Z,99.90
2023-05-04T06:34:04.105Z,99.90
2023-05-04T06:36:32.205Z,99.90
2023-05-04T06:39:00.051Z,99.90
2023-05-04T06:41:28.042Z,99.90
2023-05-04T06:43:58.751Z,99.90
2023-05-04T06:46:28.406Z,99.90
2023-05-04T06:48:56.478Z,99.90
2023-05-04T06:51:24.392Z,99.90
2023-05-04T06:53:52.566Z,99.90
2023-05-04T06:56:21.578Z,99.90
2023-05-04T06:58:50.114Z,99.90
2023-05-04T07:01:18.630Z,99.90
2023-05-04T07:03:48.101Z,99.90
2023-05-04T07:06:16.048Z,99.90
2023-05-04T07:08:44.232Z,99.90
2023-05-04T07:11:12.129Z,99.90
2023-05-04T07:13:40.364Z,99.90
2023-05-04T07:16:09.507Z,99.90
2023-05-04T07:18:38.920Z,99.90
2023-05-04T07:21:27.056Z,99.90
2023-05-04T07:23:56.790Z,99.90
2023-05-04T07:26:24.762Z,99.90
2023-05-04T07:28:52.725Z,99.90
2023-05-04T07:31:20.596Z,99.90
2023-05-04T07:33:48.708Z,99.90
2023-05-04T07:36:18.112Z,99.90
2023-05-04T07:38:46.081Z,99.90
2023-05-04T07:41:13.976Z,99.90
2023-05-04T07:43:41.828Z,99.90
2023-05-04T07:46:10.108Z,99.90
2023-05-04T07:48:38.089Z,99.90
2023-05-04T07:51:06.007Z,99.90
2023-05-04T07:53:35.317Z,99.90
2023-05-04T07:56:09.719Z,99.90
2023-05-04T07:58:37.828Z,99.90
2023-05-04T08:01:05.767Z,99.90
2023-05-04T08:03:33.858Z,99.90
2023-05-04T08:06:02.027Z,99.90
2023-05-04T08:08:29.978Z,99.90
2023-05-04T08:11:11.623Z,99.90
2023-05-04T08:13:46.400Z,99.90
2023-05-04T08:16:14.338Z,99.90
2023-05-04T08:18:42.413Z,99.90
2023-05-04T08:21:10.344Z,99.90
2023-05-04T08:23:38.447Z,99.90
2023-05-04T08:26:07.891Z,99.90
2023-05-04T08:28:37.770Z,99.90
2023-05-04T08:31:07.377Z,99.90
2023-05-04T08:33:35.505Z,99.90
2023-05-04T08:36:05.761Z,99.90
2023-05-04T08:38:33.740Z,99.90
2023-05-04T08:41:04.303Z,99.90
2023-05-04T08:43:36.938Z,99.90
2023-05-04T08:46:05.317Z,99.90
2023-05-04T08:48:34.391Z,99.90
2023-05-04T08:51:04.292Z,99.90
2023-05-04T08:53:33.625Z,99.90
2023-05-04T08:56:04.328Z,99.90
2023-05-04T08:58:37.774Z,99.90
2023-05-04T09:01:08.233Z,99.90
2023-05-04T09:03:36.613Z,99.90
2023-05-04T09:06:04.885Z,99.90
2023-05-04T09:08:32.925Z,98.20
2023-05-04T09:11:01.001Z,98.10
2023-05-04T09:13:28.987Z,97.00
2023-05-04T09:16:45.484Z,96.90
2023-05-04T09:19:21.789Z,95.20
2023-05-04T09:21:52.174Z,94.00
2023-05-04T09:24:29.174Z,93.80
2023-05-04T09:27:08.789Z,93.00
2023-05-04T09:29:39.451Z,92.20
2023-05-04T09:32:11.078Z,91.90
2023-05-04T09:34:48.402Z,91.20
2023-05-04T09:37:16.579Z,91.00
2023-05-04T09:39:55.540Z,89.80
2023-05-04T09:42:24.253Z,89.40
2023-05-04T09:45:03.277Z,89.10
2023-05-04T09:47:36.178Z,87.50
2023-05-04T09:50:20.683Z,87.00
2023-05-04T09:52:50.472Z,86.40
2023-05-04T09:55:19.668Z,84.60
2023-05-04T09:57:50.968Z,83.60
2023-05-04T10:00:20.130Z,83.20
2023-05-04T10:02:48.979Z,81.20
2023-05-04T10:05:21.679Z,80.10
2023-05-04T10:07:52.107Z,80.20
2023-05-04T10:10:20.006Z,78.60
2023-05-04T10:12:48.089Z,78.50
2023-05-04T10:15:18.217Z,77.00
2023-05-04T10:17:57.200Z,75.60
2023-05-04T10:20:49.200Z,73.70
2023-05-04T10:23:45.299Z,73.40
2023-05-04T10:26:34.248Z,72.20
2023-05-04T10:29:13.919Z,71.40
2023-05-04T10:31:42.811Z,71.70
2023-05-04T10:34:11.398Z,68.70
2023-05-04T10:36:42.579Z,67.30
2023-05-04T10:39:20.248Z,66.70
2023-05-04T10:42:03.795Z,66.80
2023-05-04T10:44:33.375Z,65.40
2023-05-04T10:47:02.821Z,65.00
2023-05-04T10:49:31.110Z,63.90
2023-05-04T10:52:11.850Z,63.10
2023-05-04T10:54:42.080Z,62.40
2023-05-04T10:57:10.929Z,61.50
2023-05-04T10:59:39.479Z,60.20
2023-05-04T11:02:09.220Z,60.00
2023-05-04T11:04:38.490Z,59.70
2023-05-04T11:07:08.782Z,60.20
2023-05-04T11:09:39.520Z,59.10
2023-05-04T11:12:10.345Z,58.20
2023-05-04T11:14:42.364Z,58.10
2023-05-04T11:17:27.286Z,56.50
2023-05-04T11:19:56.337Z,55.80
2023-05-04T11:22:24.467Z,55.30
2023-05-04T11:24:55.641Z,55.30
2023-05-04T11:27:25.193Z,54.60
2023-05-04T11:29:57.431Z,52.90
2023-05-04T11:32:35.864Z,52.50
2023-05-04T11:35:04.901Z,52.40
2023-05-04T11:37:40.122Z,52.00
2023-05-04T11:40:14.331Z,51.70
2023-05-04T11:42:43.342Z,51.30
2023-05-04T11:45:14.396Z,51.10
2023-05-04T11:47:43.382Z,51.60
2023-05-04T11:50:13.078Z,50.90
2023-05-04T11:52:41.703Z,50.90
2023-05-04T11:55:11.459Z,50.00
2023-05-04T11:57:41.563Z,50.50
2023-05-04T12:00:11.175Z,49.70
2023-05-04T12:02:39.348Z,49.90
2023-05-04T12:05:14.845Z,48.70
2023-05-04T12:07:42.853Z,48.70
2023-05-04T12:10:11.136Z,48.40
2023-05-04T12:12:40.725Z,47.50
2023-05-04T12:15:10.724Z,46.70
2023-05-04T12:17:42.344Z,45.70
2023-05-04T12:20:10.721Z,46.10
2023-05-04T12:22:38.769Z,46.60
2023-05-04T12:25:09.298Z,46.70
2023-05-04T12:27:43.273Z,45.00
2023-05-04T12:30:12.417Z,45.00
2023-05-04T12:32:40.333Z,45.20
2023-05-04T12:35:09.014Z,45.00
2023-05-04T12:37:37.926Z,44.90
2023-05-04T12:40:20.976Z,44.90
2023-05-04T12:42:56.777Z,45.00
2023-05-04T12:45:24.632Z,45.60
2023-05-04T12:47:52.561Z,45.60
2023-05-04T12:50:20.457Z,45.00
2023-05-04T12:52:48.477Z,45.10
2023-05-04T12:55:16.382Z,44.70
2023-05-04T12:57:44.897Z,44.90
2023-05-04T13:00:15.727Z,44.90
2023-05-04T13:02:44.345Z,44.90
2023-05-04T13:05:12.998Z,44.80
2023-05-04T13:07:40.886Z,45.00
2023-05-04T13:10:09.542Z,44.90
2023-05-04T13:12:38.685Z,44.80
2023-05-04T13:15:08.016Z,44.30
2023-05-04T13:17:37.865Z,43.50
2023-05-04T13:20:07.019Z,43.30
2023-05-04T13:22:35.305Z,42.30
2023-05-04T13:25:03.219Z,42.80
2023-05-04T13:27:31.141Z,42.70
2023-05-04T13:30:01.195Z,42.80
2023-05-04T13:32:29.247Z,43.00
2023-05-04T13:34:58.792Z,43.30
2023-05-04T13:37:26.653Z,43.30
2023-05-04T13:39:54.645Z,43.50
2023-05-04T13:42:22.521Z,43.00
2023-05-04T13:44:50.403Z,43.10
2023-05-04T13:47:18.540Z,42.50
2023-05-04T13:49:46.487Z,42.90
2023-05-04T13:52:15.765Z,42.70
2023-05-04T13:54:43.733Z,43.50
2023-05-04T13:57:11.628Z,43.50
2023-05-04T13:59:39.517Z,43.90
2023-05-04T14:02:07.491Z,43.60
2023-05-04T14:04:36.796Z,43.60
2023-05-04T14:07:08.318Z,43.60
2023-05-04T14:09:37.582Z,43.00
2023-05-04T14:12:05.825Z,42.90
2023-05-04T14:14:33.883Z,43.00
2023-05-04T14:17:01.877Z,43.70
2023-05-04T14:19:29.846Z,43.70
2023-05-04T14:21:57.676Z,43.80
2023-05-04T14:24:26.028Z,44.20
2023-05-04T14:26:55.235Z,43.60
2023-05-04T14:29:23.086Z,44.70
2023-05-04T14:31:50.992Z,44.70
2023-05-04T14:34:19.043Z,44.90
2023-05-04T14:36:46.932Z,44.00
2023-05-04T14:39:14.810Z,43.80
2023-05-04T14:41:42.709Z,43.20
2023-05-04T14:44:11.913Z,42.70
2023-05-04T14:46:39.809Z,42.50
2023-05-04T14:49:08.302Z,42.40
2023-05-04T14:51:36.831Z,42.60
2023-05-04T14:54:04.904Z,42.70
2023-05-04T14:56:32.877Z,43.10
2023-05-04T14:59:01.608Z,43.30
2023-05-04T15:01:31.162Z,43.20
2023-05-04T15:03:59.169Z,43.20
2023-05-04T15:06:32.393Z,43.20
2023-05-04T15:09:00.386Z,43.00
2023-05-04T15:11:28.268Z,42.00
2023-05-04T15:13:58.002Z,42.40
2023-05-04T15:16:29.799Z,42.20
2023-05-04T15:18:59.375Z,42.60
2023-05-04T15:21:27.959Z,42.10
2023-05-04T15:23:56.305Z,42.10
2023-05-04T15:26:24.230Z,42.00
2023-05-04T15:28:53.930Z,42.90
2023-05-04T15:31:22.795Z,43.20
2023-05-04T15:33:50.767Z,43.10
2023-05-04T15:36:20.068Z,43.30
2023-05-04T15:38:48.014Z,43.50
2023-05-04T15:41:15.909Z,43.40
2023-05-04T15:43:43.763Z,43.20
2023-05-04T15:46:11.626Z,43.30
2023-05-04T15:48:39.623Z,43.70
2023-05-04T15:51:10.958Z,43.80
2023-05-04T15:53:40.566Z,43.50
2023-05-04T15:56:09.476Z,43.40
2023-05-04T15:58:37.655Z,43.00
2023-05-04T16:01:09.258Z,42.80
2023-05-04T16:03:38.669Z,42.90
2023-05-04T16:06:07.504Z,42.40
2023-05-04T16:08:36.372Z,42.00
2023-05-04T16:11:07.433Z,42.20
2023-05-04T16:13:35.741Z,41.90
2023-05-04T16:16:03.717Z,41.50
2023-05-04T16:18:31.820Z,41.00
2023-05-04T16:20:59.887Z,40.70
2023-05-04T16:23:28.707Z,41.60
2023-05-04T16:25:56.675Z,42.50
2023-05-04T16:28:26.010Z,43.00
2023-05-04T16:30:53.904Z,43.80
2023-05-04T16:33:22.036Z,43.70
2023-05-04T16:35:50.061Z,43.60
2023-05-04T16:38:19.420Z,43.30
2023-05-04T16:40:47.398Z,43.30
2023-05-04T16:43:15.305Z,43.80
2023-05-04T16:45:44.736Z,44.40
2023-05-04T16:48:12.764Z,44.80
2023-05-04T16:50:40.855Z,45.10
2023-05-04T16:53:09.177Z,45.60
2023-05-04T16:55:37.310Z,46.20
2023-05-04T16:58:05.342Z,46.60
2023-05-04T17:00:34.046Z,47.60
2023-05-04T17:03:03.498Z,47.40
2023-05-04T17:05:31.770Z,47.30
2023-05-04T17:07:59.877Z,46.70
2023-05-04T17:10:27.766Z,46.10
2023-05-04T17:12:56.155Z,45.90
2023-05-04T17:15:24.236Z,45.60
2023-05-04T17:17:52.297Z,45.40
2023-05-04T17:20:22.433Z,45.10
2023-05-04T17:22:51.689Z,44.80
2023-05-04T17:25:21.454Z,45.20
2023-05-04T17:27:49.589Z,45.70
2023-05-04T17:30:17.930Z,46.30
2023-05-04T17:32:45.785Z,46.90
2023-05-04T17:35:24.390Z,47.30
2023-05-04T17:37:58.057Z,47.60
2023-05-04T17:40:27.074Z,48.30
2023-05-04T17:42:55.866Z,49.20
2023-05-04T17:45:23.826Z,49.90
2023-05-04T17:47:52.059Z,50.40
2023-05-04T17:50:21.232Z,50.70
2023-05-04T17:52:54.266Z,51.10
2023-05-04T17:55:23.535Z,51.70
2023-05-04T17:57:53.052Z,52.10
2023-05-04T18:00:22.069Z,52.60
2023-05-04T18:02:50.171Z,52.80
2023-05-04T18:05:18.240Z,53.00
2023-05-04T18:07:46.367Z,53.30
2023-05-04T18:10:15.632Z,53.70
2023-05-04T18:12:43.734Z,54.10
2023-05-04T18:15:11.957Z,54.50
2023-05-04T18:17:39.990Z,54.80
2023-05-04T18:20:10.176Z,55.00
2023-05-04T18:22:38.292Z,55.30
2023-05-04T18:25:07.289Z,55.60
2023-05-04T18:27:37.090Z,55.90
2023-05-04T18:30:06.567Z,56.10
2023-05-04T18:32:34.874Z,56.60
2023-05-04T18:35:03.578Z,56.90
2023-05-04T18:37:31.692Z,57.20
2023-05-04T18:39:59.952Z,57.30
2023-05-04T18:42:28.052Z,57.60
2023-05-04T18:44:57.499Z,57.90
2023-05-04T18:47:25.564Z,58.30
2023-05-04T18:49:56.051Z,58.60
2023-05-04T18:52:24.128Z,58.90
2023-05-04T18:54:52.148Z,59.30
2023-05-04T18:57:20.059Z,59.50
2023-05-04T18:59:48.068Z,60.00
2023-05-04T19:02:17.412Z,60.30
2023-05-04T19:04:47.188Z,61.40
2023-05-04T19:07:15.674Z,62.30
2023-05-04T19:09:45.325Z,63.40
2023-05-04T19:12:13.956Z,64.90
2023-05-04T19:14:43.275Z,66.20
2023-05-04T19:17:11.314Z,67.50
2023-05-04T19:19:40.562Z,68.00
2023-05-04T19:22:08.454Z,68.80
2023-05-04T19:24:37.602Z,70.00
2023-05-04T19:27:05.578Z,70.50
2023-05-04T19:29:33.504Z,71.40
2023-05-04T19:32:08.549Z,72.60
2023-05-04T19:34:45.397Z,72.70
2023-05-04T19:37:13.245Z,74.00
2023-05-04T19:39:41.274Z,74.30
2023-05-04T19:42:09.459Z,75.10
2023-05-04T19:44:37.342Z,75.20
2023-05-04T19:47:05.409Z,75.00
2023-05-04T19:49:33.307Z,75.00
2023-05-04T19:52:02.672Z,74.90
2023-05-04T19:54:30.596Z,75.10
2023-05-04T19:56:58.490Z,75.40
2023-05-04T19:59:26.841Z,75.20
2023-05-04T20:01:54.964Z,75.70
2023-05-04T20:04:22.884Z,76.40
2023-05-04T20:06:51.032Z,76.50
2023-05-04T20:09:20.284Z,76.90
2023-05-04T20:11:48.330Z,77.30
2023-05-04T20:14:16.358Z,78.40
2023-05-04T20:16:44.434Z,79.70
2023-05-04T20:19:12.336Z,80.50
2023-05-04T20:21:40.358Z,81.50
2023-05-04T20:24:08.644Z,81.80
2023-05-04T20:26:38.250Z,81.90
2023-05-04T20:29:06.307Z,83.20
2023-05-04T20:31:34.365Z,83.10
2023-05-04T20:34:02.538Z,84.30
2023-05-04T20:36:30.938Z,84.70
2023-05-04T20:38:59.368Z,85.70
2023-05-04T20:41:27.404Z,87.10
2023-05-04T20:43:56.608Z,88.00
2023-05-04T20:46:24.562Z,89.60
2023-05-04T20:48:52.546Z,90.40
2023-05-04T20:51:20.411Z,90.60
2023-05-04T20:53:48.343Z,91.00
2023-05-04T20:56:16.506Z,91.90
2023-05-04T20:58:44.415Z,92.40
2023-05-04T21:01:13.662Z,93.00
2023-05-04T21:03:41.676Z,93.70
2023-05-04T21:06:09.703Z,94.90
2023-05-04T21:08:37.685Z,95.50
2023-05-04T21:11:05.664Z,96.40
2023-05-04T21:13:33.690Z,97.20
2023-05-04T21:16:01.621Z,97.50
2023-05-04T21:18:30.866Z,98.10
2023-05-04T21:20:58.876Z,98.70
2023-05-04T21:23:26.977Z,99.60
2023-05-04T21:26:01.628Z,99.90
2023-05-04T21:28:29.703Z,99.90
2023-05-04T21:30:58.018Z,99.90
2023-05-04T21:33:26.047Z,99.90
2023-05-04T21:35:55.374Z,99.90
2023-05-04T21:38:23.272Z,99.90
2023-05-04T21:40:51.132Z,99.90
2023-05-04T21:43:18.996Z,99.90
2023-05-04T21:45:46.915Z,99.90
2023-05-04T21:48:14.810Z,99.90
2023-05-04T21:50:42.668Z,99.90
2023-05-04T21:53:12.023Z,99.90
2023-05-04T21:55:39.869Z,99.90
2023-05-04T21:58:07.990Z,99.90
2023-05-04T22:00:36.067Z,99.90
2023-05-04T22:03:04.032Z,99.90
2023-05-04T22:05:31.975Z,99.90
2023-05-04T22:08:00.911Z,99.90
2023-05-04T22:10:31.011Z,99.90
2023-05-04T22:12:58.969Z,99.90
2023-05-04T22:15:31.754Z,99.90
2023-05-04T22:18:06.194Z,99.90
2023-05-04T22:20:34.622Z,99.90
2023-05-04T22:23:02.512Z,99.90
2023-05-04T22:25:31.975Z,99.90
2023-05-04T22:27:59.902Z,99.90
2023-05-04T22:30:28.281Z,99.90
2023-05-04T22:32:56.966Z,99.90
2023-05-04T22:35:25.448Z,99.90
2023-05-04T22:37:54.110Z,99.90
2023-05-04T22:40:22.488Z,99.90
2023-05-04T22:42:51.813Z,99.90
2023-05-04T22:45:20.119Z,99.90
2023-05-04T22:47:48.456Z,99.90
2023-05-04T22:50:17.427Z,99.90
2023-05-04T22:52:45.321Z,99.90
2023-05-04T22:55:13.262Z,99.90
2023-05-04T22:57:41.231Z,99.90
2023-05-04T23:00:12.156Z,99.90
2023-05-04T23:02:40.393Z,99.90
2023-05-04T23:05:09.885Z,99.90
2023-05-04T23:07:37.829Z,99.90
2023-05-04T23:10:06.925Z,99.90
2023-05-04T23:12:35.050Z,99.90
2023-05-04T23:15:03.506Z,99.90
2023-05-04T23:17:34.159Z,99.90
2023-05-04T23:20:02.228Z,99.90
2023-05-04T23:22:30.158Z,99.90
2023-05-04T23:24:58.043Z,99.90
2023-05-04T23:27:25.921Z,99.90
2023-05-04T23:29:53.854Z,99.90
2023-05-04T23:32:21.718Z,99.90
2023-05-04T23:34:51.081Z,99.90
2023-05-04T23:37:19.013Z,99.90
2023-05-04T23:39:47.432Z,99.90
2023-05-04T23:42:15.338Z,99.90
2023-05-04T23:44:43.314Z,99.90
2023-05-04T23:47:11.226Z,99.90
2023-05-04T23:49:39.272Z,99.90
2023-05-04T23:52:08.482Z,99.90
2023-05-04T23:54:36.497Z,99.90
2023-05-04T23:57:04.572Z,99.90
2023-05-04T23:59:32.920Z,99.90
